Time;durP1;ratioP1;P1;durP2;ratioP2;P2;SDS_P1;SDS_P2;PMS_P1;PMS_P2;Temp;Humidity;BMP_temperature;BMP_pressure;BME280_temperature;BME280_humidity;BME280_pressure;Samples;Min_cycle;Max_cycle;Signal;HPM_P1;HPM_P2
2022/07/07 00:01:03;;;;;;;0.10;0.10;;;;;;;;;;5069613;28;20024;-80
2022/07/07 00:03:29;;;;;;;0.10;0.10;;;;;;;;;;5070531;28;20032;-78
2022/07/07 00:05:55;;;;;;;0.20;0.20;;;;;;;;;;5070685;28;20025;-79
2022/07/07 00:08:21;;;;;;;0.17;0.17;;;;;;;;;;5071179;28;20029;-78
2022/07/07 00:10:47;;;;;;;0.10;0.10;;;;;;;;;;5070714;28;20396;-79
2022/07/07 00:13:13;;;;;;;0.10;0.10;;;;;;;;;;5069426;28;20032;-80
2022/07/07 00:15:39;;;;;;;0.10;0.10;;;;;;;;;;5071453;28;20498;-80
2022/07/07 00:18:05;;;;;;;0.10;0.10;;;;;;;;;;5074472;28;20016;-81
2022/07/07 00:20:31;;;;;;;0.10;0.10;;;;;;;;;;5073894;28;20492;-78
2022/07/07 00:22:57;;;;;;;0.10;0.10;;;;;;;;;;5074469;28;20017;-78
2022/07/07 00:25:23;;;;;;;0.10;0.10;;;;;;;;;;5074178;28;20025;-78
2022/07/07 00:27:49;;;;;;;0.10;0.10;;;;;;;;;;5072994;28;20408;-79
2022/07/07 00:30:15;;;;;;;0.10;0.10;;;;;;;;;;5074369;28;20021;-78
2022/07/07 00:32:41;;;;;;;0.10;0.10;;;;;;;;;;5072664;28;20025;-80
2022/07/07 00:35:07;;;;;;;0.10;0.10;;;;;;;;;;5074160;28;20083;-79
2022/07/07 00:37:33;;;;;;;0.10;0.10;;;;;;;;;;5073981;28;20052;-78
2022/07/07 00:39:59;;;;;;;0.10;0.10;;;;;;;;;;5074164;28;20056;-79
2022/07/07 00:42:26;;;;;;;0.10;0.10;;;;;;;;;;5073526;28;20535;-79
2022/07/07 00:44:52;;;;;;;0.10;0.10;;;;;;;;;;5074372;28;20549;-79
2022/07/07 00:47:19;;;;;;;0.10;0.10;;;;;;;;;;5072949;28;20023;-79
2022/07/07 00:49:45;;;;;;;0.10;0.10;;;;;;;;;;5073607;28;20091;-80
2022/07/07 00:52:15;;;;;;;0.10;0.10;;;;;;;;;;5073968;28;20443;-80
2022/07/07 00:54:50;;;;;;;0.10;0.10;;;;;;;;;;5072271;28;20071;-78
2022/07/07 00:57:16;;;;;;;0.10;0.10;;;;;;;;;;5073563;28;20488;-79
2022/07/07 00:59:42;;;;;;;0.10;0.10;;;;;;;;;;5073578;28;20469;-78
2022/07/07 01:02:08;;;;;;;0.10;0.10;;;;;;;;;;5073759;28;20024;-79
2022/07/07 01:04:35;;;;;;;0.10;0.10;;;;;;;;;;5073521;28;20549;-81
2022/07/07 01:07:01;;;;;;;0.10;0.10;;;;;;;;;;5073663;28;20063;-81
2022/07/07 01:09:28;;;;;;;0.10;0.10;;;;;;;;;;5072134;28;20103;-79
2022/07/07 01:11:58;;;;;;;0.10;0.10;;;;;;;;;;5072685;28;20028;-78
2022/07/07 01:14:25;;;;;;;0.10;0.10;;;;;;;;;;5073128;28;20503;-78
2022/07/07 01:16:51;;;;;;;0.10;0.10;;;;;;;;;;5073780;28;20021;-79
2022/07/07 01:19:18;;;;;;;0.10;0.10;;;;;;;;;;5073747;28;20025;-79
2022/07/07 01:21:52;;;;;;;0.10;0.10;;;;;;;;;;5073150;28;20029;-79
2022/07/07 01:24:19;;;;;;;0.10;0.10;;;;;;;;;;5073698;28;20024;-79
2022/07/07 01:26:45;;;;;;;0.10;0.10;;;;;;;;;;5071501;28;20484;-80
2022/07/07 01:29:11;;;;;;;0.10;0.10;;;;;;;;;;5073231;28;20028;-79
2022/07/07 01:31:37;;;;;;;0.10;0.10;;;;;;;;;;5072948;28;20479;-78
2022/07/07 01:34:03;;;;;;;0.10;0.10;;;;;;;;;;5071779;28;20086;-79
2022/07/07 01:36:29;;;;;;;0.10;0.10;;;;;;;;;;5072926;28;20024;-78
2022/07/07 01:38:55;;;;;;;0.10;0.10;;;;;;;;;;5071758;28;20020;-79
2022/07/07 01:41:21;;;;;;;0.10;0.10;;;;;;;;;;5072798;28;20436;-79
2022/07/07 01:43:47;;;;;;;0.10;0.10;;;;;;;;;;5071692;28;20035;-78
2022/07/07 01:46:13;;;;;;;0.10;0.10;;;;;;;;;;5072942;28;20492;-79
2022/07/07 01:48:40;;;;;;;0.10;0.10;;;;;;;;;;5071374;28;20032;-79
2022/07/07 01:51:06;;;;;;;0.10;0.10;;;;;;;;;;5072214;28;20115;-79
2022/07/07 01:53:32;;;;;;;0.10;0.10;;;;;;;;;;5071232;28;20484;-78
2022/07/07 01:56:05;;;;;;;0.10;0.10;;;;;;;;;;5071332;28;20039;-78
2022/07/07 01:58:32;;;;;;;0.10;0.10;;;;;;;;;;5071134;28;20519;-79
2022/07/07 02:00:58;;;;;;;0.10;0.10;;;;;;;;;;5072682;28;20357;-79
2022/07/07 02:03:25;;;;;;;0.10;0.10;;;;;;;;;;5072314;28;20039;-78
2022/07/07 02:05:52;;;;;;;0.20;0.20;;;;;;;;;;5072376;28;20032;-77
2022/07/07 02:08:18;;;;;;;0.10;0.10;;;;;;;;;;5072705;28;20440;-77
2022/07/07 02:13:28;;;;;;;0.10;0.10;;;;;;;;;;5072054;28;20039;-78
2022/07/07 02:15:54;;;;;;;0.10;0.10;;;;;;;;;;5072300;28;20553;-79
2022/07/07 02:18:20;;;;;;;0.20;0.20;;;;;;;;;;5072575;28;20492;-78
2022/07/07 02:20:46;;;;;;;0.10;0.10;;;;;;;;;;5070602;28;20024;-79
2022/07/07 02:23:12;;;;;;;0.10;0.10;;;;;;;;;;5072278;28;20032;-79
2022/07/07 02:25:38;;;;;;;0.10;0.10;;;;;;;;;;5070367;28;20017;-78
2022/07/07 02:28:05;;;;;;;0.10;0.10;;;;;;;;;;5071686;28;20062;-79
2022/07/07 02:30:31;;;;;;;0.10;0.10;;;;;;;;;;5071788;28;20126;-79
2022/07/07 02:32:57;;;;;;;0.10;0.10;;;;;;;;;;5071925;28;20438;-78
2022/07/07 02:35:23;;;;;;;0.10;0.10;;;;;;;;;;5071535;28;20032;-78
2022/07/07 02:37:49;;;;;;;0.10;0.10;;;;;;;;;;5071929;28;20074;-78
2022/07/07 02:40:15;;;;;;;0.10;0.10;;;;;;;;;;5071794;28;20024;-78
2022/07/07 02:42:41;;;;;;;0.10;0.10;;;;;;;;;;5071260;28;20051;-78
2022/07/07 02:45:07;;;;;;;0.10;0.10;;;;;;;;;;5071688;28;20059;-79
2022/07/07 02:47:33;;;;;;;0.10;0.10;;;;;;;;;;5071402;28;20032;-79
2022/07/07 02:49:59;;;;;;;0.10;0.10;;;;;;;;;;5071484;28;20031;-79
2022/07/07 02:52:25;;;;;;;0.10;0.10;;;;;;;;;;5071396;28;20696;-79
2022/07/07 02:54:51;;;;;;;0.10;0.10;;;;;;;;;;5070493;28;20534;-79
2022/07/07 02:57:17;;;;;;;0.10;0.10;;;;;;;;;;5071730;28;20039;-79
2022/07/07 02:59:43;;;;;;;0.10;0.10;;;;;;;;;;5069931;28;20028;-79
2022/07/07 03:02:09;;;;;;;0.10;0.10;;;;;;;;;;5071112;28;20032;-78
2022/07/07 03:04:35;;;;;;;0.10;0.10;;;;;;;;;;5071206;28;20028;-78
2022/07/07 03:07:01;;;;;;;0.10;0.10;;;;;;;;;;5071398;28;20480;-78
2022/07/07 03:09:27;;;;;;;0.10;0.10;;;;;;;;;;5071200;28;20395;-79
2022/07/07 03:11:53;;;;;;;0.10;0.10;;;;;;;;;;5071336;28;20500;-79
2022/07/07 03:14:20;;;;;;;0.10;0.10;;;;;;;;;;5071523;28;20111;-80
2022/07/07 03:16:45;;;;;;;0.10;0.10;;;;;;;;;;5070615;28;20032;-79
2022/07/07 03:19:12;;;;;;;0.10;0.10;;;;;;;;;;5069973;28;20324;-80
2022/07/07 03:21:38;;;;;;;0.10;0.10;;;;;;;;;;5069809;28;20074;-81
2022/07/07 03:24:04;;;;;;;0.10;0.10;;;;;;;;;;5071290;28;20099;-79
2022/07/07 03:26:31;;;;;;;0.10;0.10;;;;;;;;;;5064742;28;20028;-79
2022/07/07 03:28:57;;;;;;;0.10;0.10;;;;;;;;;;5069969;28;20016;-79
2022/07/07 03:31:23;;;;;;;0.10;0.10;;;;;;;;;;5071165;28;20081;-79
2022/07/07 03:33:49;;;;;;;0.10;0.10;;;;;;;;;;5071053;28;20024;-79
2022/07/07 03:36:16;;;;;;;0.10;0.10;;;;;;;;;;5069828;28;20082;-78
2022/07/07 03:38:42;;;;;;;0.10;0.10;;;;;;;;;;5070820;28;20115;-79
2022/07/07 03:41:08;;;;;;;0.10;0.10;;;;;;;;;;5071026;28;20093;-78
2022/07/07 03:43:34;;;;;;;0.10;0.10;;;;;;;;;;5070726;28;20024;-78
2022/07/07 03:46:00;;;;;;;0.10;0.10;;;;;;;;;;5070951;28;20033;-78
2022/07/07 03:48:28;;;;;;;0.10;0.10;;;;;;;;;;5070892;28;20021;-78
2022/07/07 03:50:54;;;;;;;0.10;0.10;;;;;;;;;;5072175;28;20427;-78
2022/07/07 03:53:20;;;;;;;0.15;0.15;;;;;;;;;;5075377;28;20028;-78
2022/07/07 03:55:46;;;;;;;0.10;0.10;;;;;;;;;;5074171;28;20047;-78
2022/07/07 03:58:12;;;;;;;0.10;0.10;;;;;;;;;;5074904;28;20033;-78
2022/07/07 04:00:38;;;;;;;0.10;0.10;;;;;;;;;;5073413;28;20526;-79
2022/07/07 04:03:04;;;;;;;0.10;0.10;;;;;;;;;;5074870;28;20029;-79
2022/07/07 04:05:30;;;;;;;0.20;0.20;;;;;;;;;;5074748;28;20074;-77
2022/07/07 04:07:56;;;;;;;0.10;0.10;;;;;;;;;;5073447;28;20106;-79
2022/07/07 04:10:22;;;;;;;0.10;0.10;;;;;;;;;;5073480;28;20115;-80
2022/07/07 04:12:48;;;;;;;0.10;0.10;;;;;;;;;;5073097;28;20126;-78
2022/07/07 04:15:14;;;;;;;0.10;0.10;;;;;;;;;;5074544;28;20650;-79
2022/07/07 04:17:40;;;;;;;0.10;0.10;;;;;;;;;;5073091;28;20088;-79
2022/07/07 04:20:06;;;;;;;0.10;0.10;;;;;;;;;;5073318;28;20087;-79
2022/07/07 04:22:32;;;;;;;0.10;0.10;;;;;;;;;;5074343;28;20483;-79
2022/07/07 04:24:58;;;;;;;0.10;0.10;;;;;;;;;;5074206;28;20085;-78
2022/07/07 04:27:24;;;;;;;0.10;0.10;;;;;;;;;;5074434;28;20103;-78
2022/07/07 04:29:50;;;;;;;0.10;0.10;;;;;;;;;;5074405;28;20024;-78
2022/07/07 04:32:16;;;;;;;0.10;0.10;;;;;;;;;;5072998;28;20023;-79
2022/07/07 04:34:42;;;;;;;0.10;0.10;;;;;;;;;;5072584;28;20166;-79
2022/07/07 04:37:08;;;;;;;0.10;0.10;;;;;;;;;;5074388;28;20028;-78
2022/07/07 04:39:34;;;;;;;0.10;0.10;;;;;;;;;;5072413;28;20035;-78
2022/07/07 04:42:00;;;;;;;0.10;0.10;;;;;;;;;;5072879;28;20021;-78
2022/07/07 04:44:26;;;;;;;0.10;0.10;;;;;;;;;;5074177;28;20025;-78
2022/07/07 04:46:53;;;;;;;0.10;0.10;;;;;;;;;;5072561;28;20021;-78
2022/07/07 04:49:19;;;;;;;0.10;0.10;;;;;;;;;;5074004;28;20082;-78
2022/07/07 04:51:45;;;;;;;0.10;0.10;;;;;;;;;;5073543;28;20036;-78
2022/07/07 04:54:11;;;;;;;0.10;0.10;;;;;;;;;;5073252;28;20043;-78
2022/07/07 04:56:37;;;;;;;0.10;0.10;;;;;;;;;;5072117;28;20548;-78
2022/07/07 04:59:03;;;;;;;0.10;0.10;;;;;;;;;;5068339;28;20096;-78
2022/07/07 05:01:29;;;;;;;0.10;0.10;;;;;;;;;;5053521;28;20014;-77
2022/07/07 05:03:55;;;;;;;0.13;0.13;;;;;;;;;;5053850;28;20451;-78
2022/07/07 05:06:21;;;;;;;0.10;0.10;;;;;;;;;;5052777;28;20020;-78
2022/07/07 05:08:47;;;;;;;0.20;0.20;;;;;;;;;;5053253;28;20488;-79
2022/07/07 05:11:13;;;;;;;0.10;0.10;;;;;;;;;;5053445;28;20021;-80
2022/07/07 05:13:39;;;;;;;0.10;0.10;;;;;;;;;;5053067;28;20032;-78
2022/07/07 05:16:05;;;;;;;0.10;0.10;;;;;;;;;;5053342;28;20025;-80
2022/07/07 05:18:32;;;;;;;0.10;0.10;;;;;;;;;;5053012;28;20025;-79
2022/07/07 05:20:58;;;;;;;0.10;0.10;;;;;;;;;;5053326;28;20473;-77
2022/07/07 05:23:27;;;;;;;0.10;0.10;;;;;;;;;;5053514;28;20028;-78
2022/07/07 05:25:53;;;;;;;0.10;0.10;;;;;;;;;;5053238;28;20028;-78
2022/07/07 05:28:19;;;;;;;0.10;0.10;;;;;;;;;;5053144;28;20017;-78
2022/07/07 05:30:45;;;;;;;0.10;0.10;;;;;;;;;;5052767;28;20468;-78
2022/07/07 05:33:12;;;;;;;0.20;0.20;;;;;;;;;;5051817;28;20021;-78
2022/07/07 05:35:38;;;;;;;0.10;0.10;;;;;;;;;;5052625;28;20481;-78
2022/07/07 05:38:04;;;;;;;0.10;0.10;;;;;;;;;;5053004;28;20063;-79
2022/07/07 05:40:30;;;;;;;0.10;0.10;;;;;;;;;;5052670;28;20029;-77
2022/07/07 05:42:56;;;;;;;0.10;0.10;;;;;;;;;;5053186;28;20056;-79
2022/07/07 05:45:22;;;;;;;0.10;0.10;;;;;;;;;;5051951;28;20029;-80
2022/07/07 05:47:48;;;;;;;0.10;0.10;;;;;;;;;;5051134;28;20021;-76
2022/07/07 05:50:14;;;;;;;0.10;0.10;;;;;;;;;;5052646;28;20029;-77
2022/07/07 05:52:40;;;;;;;0.10;0.10;;;;;;;;;;5052494;28;20075;-77
2022/07/07 05:55:09;;;;;;;0.10;0.10;;;;;;;;;;5051286;28;20405;-77
2022/07/07 05:57:35;;;;;;;0.10;0.10;;;;;;;;;;5052264;28;20021;-76
2022/07/07 06:00:02;;;;;;;0.10;0.10;;;;;;;;;;5052557;28;20025;-77
2022/07/07 06:02:28;;;;;;;0.10;0.10;;;;;;;;;;5053562;28;20159;-76
2022/07/07 06:04:54;;;;;;;0.10;0.10;;;;;;;;;;5052548;28;20104;-76
2022/07/07 06:07:20;;;;;;;0.10;0.10;;;;;;;;;;5051524;28;20025;-77
2022/07/07 06:09:46;;;;;;;0.10;0.10;;;;;;;;;;5051307;28;20036;-76
2022/07/07 06:12:12;;;;;;;0.10;0.10;;;;;;;;;;5051752;28;20021;-79
2022/07/07 06:14:38;;;;;;;0.10;0.10;;;;;;;;;;5050508;28;20037;-78
2022/07/07 06:17:04;;;;;;;0.10;0.10;;;;;;;;;;5052207;28;20159;-79
2022/07/07 06:19:30;;;;;;;0.10;0.10;;;;;;;;;;5052077;28;20029;-78
2022/07/07 06:21:56;;;;;;;0.10;0.10;;;;;;;;;;5050315;28;20115;-76
2022/07/07 06:24:22;;;;;;;0.10;0.10;;;;;;;;;;5050695;28;20116;-77
2022/07/07 06:26:48;;;;;;;0.10;0.10;;;;;;;;;;5050242;28;20033;-77
2022/07/07 06:29:14;;;;;;;0.10;0.10;;;;;;;;;;5051696;28;20021;-76
2022/07/07 06:31:40;;;;;;;0.10;0.10;;;;;;;;;;5051758;28;20108;-77
2022/07/07 06:34:06;;;;;;;0.10;0.10;;;;;;;;;;5051769;28;20113;-77
2022/07/07 06:36:32;;;;;;;0.10;0.10;;;;;;;;;;5051629;28;20025;-77
2022/07/07 06:38:58;;;;;;;0.10;0.10;;;;;;;;;;5052136;28;20028;-77
2022/07/07 06:41:33;;;;;;;0.10;0.10;;;;;;;;;;5052033;28;20025;-77
2022/07/07 06:43:59;;;;;;;0.10;0.10;;;;;;;;;;5051995;28;20469;-77
2022/07/07 06:46:25;;;;;;;0.10;0.10;;;;;;;;;;5051958;28;20103;-77
2022/07/07 06:48:51;;;;;;;0.10;0.10;;;;;;;;;;5051384;28;20099;-77
2022/07/07 06:51:17;;;;;;;0.10;0.10;;;;;;;;;;5051499;28;20037;-77
2022/07/07 06:53:43;;;;;;;0.10;0.10;;;;;;;;;;5051184;28;20021;-76
2022/07/07 06:56:09;;;;;;;0.10;0.10;;;;;;;;;;5051510;28;20409;-77
2022/07/07 06:58:35;;;;;;;0.10;0.10;;;;;;;;;;5051229;28;20096;-77
2022/07/07 07:01:01;;;;;;;0.10;0.10;;;;;;;;;;5051541;28;20114;-77
2022/07/07 07:03:27;;;;;;;0.10;0.10;;;;;;;;;;5051729;28;20021;-77
2022/07/07 07:05:53;;;;;;;0.10;0.10;;;;;;;;;;5051162;28;20025;-77
2022/07/07 07:08:19;;;;;;;0.10;0.10;;;;;;;;;;5049815;28;20078;-76
2022/07/07 07:10:45;;;;;;;0.10;0.10;;;;;;;;;;5051076;28;20029;-77
2022/07/07 07:13:11;;;;;;;0.20;0.20;;;;;;;;;;5051386;28;20104;-77
2022/07/07 07:15:39;;;;;;;0.10;0.10;;;;;;;;;;5049785;28;20382;-77
2022/07/07 07:18:05;;;;;;;0.10;0.10;;;;;;;;;;5051240;28;20055;-77
2022/07/07 07:20:31;;;;;;;0.10;0.10;;;;;;;;;;5051001;28;20033;-76
2022/07/07 07:22:57;;;;;;;0.10;0.10;;;;;;;;;;5051392;28;20017;-77
2022/07/07 07:25:23;;;;;;;0.10;0.10;;;;;;;;;;5050246;28;20521;-76
2022/07/07 07:27:49;;;;;;;0.10;0.10;;;;;;;;;;5049635;28;20135;-77
2022/07/07 07:30:15;;;;;;;0.15;0.15;;;;;;;;;;5051057;28;20056;-76
2022/07/07 07:32:41;;;;;;;0.10;0.10;;;;;;;;;;5051142;28;20487;-77
2022/07/07 07:35:08;;;;;;;0.10;0.10;;;;;;;;;;5050987;28;20040;-77
2022/07/07 07:37:34;;;;;;;0.10;0.10;;;;;;;;;;5050722;28;20393;-76
2022/07/07 07:40:00;;;;;;;0.10;0.10;;;;;;;;;;5050948;28;20035;-77
2022/07/07 07:42:26;;;;;;;0.10;0.10;;;;;;;;;;5051291;28;20036;-76
2022/07/07 07:45:10;;;;;;;0.10;0.10;;;;;;;;;;5050741;28;20504;-77
2022/07/07 07:47:37;;;;;;;0.10;0.10;;;;;;;;;;5050688;28;20021;-76
2022/07/07 07:50:04;;;;;;;0.10;0.10;;;;;;;;;;5050705;28;20033;-77
2022/07/07 07:52:30;;;;;;;0.10;0.10;;;;;;;;;;5050935;28;20047;-77
2022/07/07 07:54:56;;;;;;;0.10;0.10;;;;;;;;;;5051181;28;20493;-77
2022/07/07 07:57:22;;;;;;;0.10;0.10;;;;;;;;;;5050885;28;20120;-77
2022/07/07 07:59:48;;;;;;;0.10;0.10;;;;;;;;;;5049267;28;20048;-78
2022/07/07 08:02:14;;;;;;;0.10;0.10;;;;;;;;;;5050807;28;20024;-77
2022/07/07 08:04:40;;;;;;;0.10;0.10;;;;;;;;;;5050533;28;20108;-77
2022/07/07 08:07:06;;;;;;;0.10;0.10;;;;;;;;;;5050794;28;20096;-77
2022/07/07 08:09:32;;;;;;;0.10;0.10;;;;;;;;;;5050531;28;20037;-77
2022/07/07 08:11:58;;;;;;;0.00;0.00;;;;;;;;;;5051013;28;20021;-77
2022/07/07 08:14:24;;;;;;;0.10;0.10;;;;;;;;;;5050604;28;20045;-78
2022/07/07 08:16:50;;;;;;;0.10;0.10;;;;;;;;;;5050459;28;20366;-77
2022/07/07 08:19:17;;;;;;;0.10;0.10;;;;;;;;;;5050522;28;20026;-77
2022/07/07 08:21:46;;;;;;;0.10;0.10;;;;;;;;;;5050393;28;20485;-78
2022/07/07 08:24:12;;;;;;;0.10;0.10;;;;;;;;;;5050589;28;20025;-78
2022/07/07 08:26:38;;;;;;;0.10;0.10;;;;;;;;;;5050399;28;20025;-77
2022/07/07 08:29:04;;;;;;;0.10;0.10;;;;;;;;;;5050538;28;20025;-77
2022/07/07 08:31:31;;;;;;;0.10;0.10;;;;;;;;;;5050331;28;20029;-77
2022/07/07 08:33:57;;;;;;;0.10;0.10;;;;;;;;;;5050636;28;20033;-77
2022/07/07 08:36:23;;;;;;;0.10;0.10;;;;;;;;;;5050978;28;20032;-78
2022/07/07 08:38:49;;;;;;;0.10;0.10;;;;;;;;;;5053876;28;20025;-77
2022/07/07 08:41:15;;;;;;;0.10;0.10;;;;;;;;;;5054155;28;20057;-77
2022/07/07 08:43:41;;;;;;;0.10;0.10;;;;;;;;;;5052494;28;20115;-77
2022/07/07 08:46:08;;;;;;;0.10;0.10;;;;;;;;;;5052834;28;20021;-77
2022/07/07 08:48:34;;;;;;;0.10;0.10;;;;;;;;;;5053580;28;20037;-77
2022/07/07 08:51:01;;;;;;;0.10;0.10;;;;;;;;;;5053741;28;20037;-77
2022/07/07 08:53:29;;;;;;;0.10;0.10;;;;;;;;;;5054212;28;20036;-77
2022/07/07 08:55:55;;;;;;;0.10;0.10;;;;;;;;;;5053822;28;20055;-76
2022/07/07 08:58:22;;;;;;;0.10;0.10;;;;;;;;;;5053528;28;20039;-77
2022/07/07 09:00:48;;;;;;;0.10;0.10;;;;;;;;;;5052226;28;20028;-76
2022/07/07 09:03:14;;;;;;;0.10;0.10;;;;;;;;;;5053732;28;20540;-77
2022/07/07 09:05:41;;;;;;;0.10;0.10;;;;;;;;;;5053443;28;20021;-78
2022/07/07 09:08:17;;;;;;;0.10;0.10;;;;;;;;;;5053789;28;20029;-77
2022/07/07 09:10:44;;;;;;;0.10;0.10;;;;;;;;;;5053346;28;20029;-77
2022/07/07 09:13:21;;;;;;;0.10;0.10;;;;;;;;;;5053625;28;20021;-78
2022/07/07 09:15:48;;;;;;;0.10;0.10;;;;;;;;;;5053217;28;20044;-78
2022/07/07 09:18:27;;;;;;;0.10;0.10;;;;;;;;;;5053447;28;20024;-78
2022/07/07 09:20:53;;;;;;;0.20;0.20;;;;;;;;;;5053238;28;20401;-77
2022/07/07 09:23:19;;;;;;;0.17;0.17;;;;;;;;;;5053353;28;20032;-77
2022/07/07 09:25:45;;;;;;;0.10;0.10;;;;;;;;;;5053041;28;20032;-77
2022/07/07 09:28:11;;;;;;;0.10;0.10;;;;;;;;;;5053200;28;20103;-77
2022/07/07 09:30:38;;;;;;;0.10;0.10;;;;;;;;;;5053087;28;20017;-78
2022/07/07 09:33:06;;;;;;;0.10;0.10;;;;;;;;;;5053186;28;20032;-77
2022/07/07 09:38:22;;;;;;;0.13;0.13;;;;;;;;;;5053093;28;20405;-78
2022/07/07 09:41:02;;;;;;;0.10;0.10;;;;;;;;;;5052797;28;20044;-78
2022/07/07 09:43:28;;;;;;;0.10;0.10;;;;;;;;;;5053305;28;20025;-78
2022/07/07 09:46:13;;;;;;;0.10;0.10;;;;;;;;;;5051379;28;20021;-77
2022/07/07 09:48:40;;;;;;;0.10;0.10;;;;;;;;;;5051631;28;20036;-78
2022/07/07 09:51:13;;;;;;;0.10;0.10;;;;;;;;;;5051208;28;20132;-78
2022/07/07 09:53:55;;;;;;;0.10;0.10;;;;;;;;;;5051169;28;20072;-77
2022/07/07 09:56:22;;;;;;;0.10;0.10;;;;;;;;;;5052745;28;20055;-77
2022/07/07 09:58:48;;;;;;;0.10;0.10;;;;;;;;;;5052483;28;20092;-77
2022/07/07 10:01:14;;;;;;;0.00;0.00;;;;;;;;;;5052612;28;20028;-78
2022/07/07 10:03:43;;;;;;;0.05;0.05;;;;;;;;;;5051126;28;20060;-77
2022/07/07 10:06:12;;;;;;;0.10;0.10;;;;;;;;;;5052637;28;20033;-78
2022/07/07 10:08:43;;;;;;;0.10;0.10;;;;;;;;;;5052278;28;20029;-78
2022/07/07 10:11:09;;;;;;;0.10;0.10;;;;;;;;;;5052510;28;20029;-78
2022/07/07 10:13:38;;;;;;;0.10;0.10;;;;;;;;;;5052147;28;20079;-78
2022/07/07 10:16:05;;;;;;;0.10;0.10;;;;;;;;;;5052298;28;20489;-78
2022/07/07 10:18:32;;;;;;;0.10;0.10;;;;;;;;;;5052015;28;20505;-76
2022/07/07 10:20:58;;;;;;;0.10;0.10;;;;;;;;;;5052623;28;20400;-78
2022/07/07 10:23:24;;;;;;;0.10;0.10;;;;;;;;;;5052213;28;20025;-78
2022/07/07 10:26:03;;;;;;;0.10;0.10;;;;;;;;;;5051917;28;20037;-77
2022/07/07 10:28:48;;;;;;;0.10;0.10;;;;;;;;;;5052356;28;20017;-77
2022/07/07 10:31:20;;;;;;;0.10;0.10;;;;;;;;;;5052017;28;20021;-77
2022/07/07 10:33:59;;;;;;;0.10;0.10;;;;;;;;;;5050538;28;20461;-77
2022/07/07 10:36:25;;;;;;;0.10;0.10;;;;;;;;;;5050890;28;20036;-77
2022/07/07 10:38:52;;;;;;;0.10;0.10;;;;;;;;;;5051614;28;20032;-77
2022/07/07 10:41:24;;;;;;;0.10;0.10;;;;;;;;;;5051864;28;20062;-78
2022/07/07 10:43:58;;;;;;;0.10;0.10;;;;;;;;;;5050256;28;20068;-77
2022/07/07 10:46:24;;;;;;;0.10;0.10;;;;;;;;;;5050516;28;20059;-77
2022/07/07 10:48:53;;;;;;;0.10;0.10;;;;;;;;;;5051564;28;20465;-78
2022/07/07 10:51:22;;;;;;;0.10;0.10;;;;;;;;;;5051335;28;20503;-77
2022/07/07 10:54:02;;;;;;;0.10;0.10;;;;;;;;;;5051239;28;20468;-78
2022/07/07 10:56:28;;;;;;;0.10;0.10;;;;;;;;;;5051866;28;20029;-77
2022/07/07 10:58:54;;;;;;;0.10;0.10;;;;;;;;;;5051121;28;20082;-78
2022/07/07 11:01:21;;;;;;;0.10;0.10;;;;;;;;;;5051418;28;20028;-77
2022/07/07 11:03:47;;;;;;;0.10;0.10;;;;;;;;;;5051255;28;20101;-77
2022/07/07 11:06:13;;;;;;;0.10;0.10;;;;;;;;;;5051414;28;20057;-77
2022/07/07 11:08:39;;;;;;;0.10;0.10;;;;;;;;;;5051093;28;20017;-78
2022/07/07 11:11:06;;;;;;;0.10;0.10;;;;;;;;;;5051338;28;20495;-78
2022/07/07 11:13:37;;;;;;;0.10;0.10;;;;;;;;;;5051055;28;20063;-78
2022/07/07 11:16:06;;;;;;;0.10;0.10;;;;;;;;;;5051221;28;20140;-77
2022/07/07 11:18:34;;;;;;;0.10;0.10;;;;;;;;;;5050960;28;20104;-77
2022/07/07 11:21:01;;;;;;;0.10;0.10;;;;;;;;;;5051455;28;20389;-77
2022/07/07 11:23:44;;;;;;;0.10;0.10;;;;;;;;;;5051576;28;20473;-78
2022/07/07 11:26:11;;;;;;;0.10;0.10;;;;;;;;;;5051165;28;20028;-77
2022/07/07 11:28:37;;;;;;;0.10;0.10;;;;;;;;;;5050911;28;20033;-78
2022/07/07 11:31:04;;;;;;;0.10;0.10;;;;;;;;;;5051030;28;20017;-78
2022/07/07 11:33:30;;;;;;;0.10;0.10;;;;;;;;;;5050837;28;20040;-78
2022/07/07 11:35:56;;;;;;;0.10;0.10;;;;;;;;;;5049974;28;20033;-77
2022/07/07 11:38:27;;;;;;;0.10;0.10;;;;;;;;;;5051066;28;20774;-76
2022/07/07 11:40:53;;;;;;;0.10;0.10;;;;;;;;;;5050790;28;20082;-77
2022/07/07 11:43:23;;;;;;;0.10;0.10;;;;;;;;;;5050745;28;20029;-78
2022/07/07 11:45:49;;;;;;;0.10;0.10;;;;;;;;;;5049443;28;20056;-78
2022/07/07 11:48:16;;;;;;;0.10;0.10;;;;;;;;;;5050958;28;20036;-78
2022/07/07 11:50:42;;;;;;;0.10;0.10;;;;;;;;;;5050710;28;20032;-78
2022/07/07 11:53:09;;;;;;;0.10;0.10;;;;;;;;;;5050933;28;20108;-78
2022/07/07 11:55:35;;;;;;;0.10;0.10;;;;;;;;;;5050521;28;20121;-77
2022/07/07 11:58:05;;;;;;;0.10;0.10;;;;;;;;;;5050794;28;20151;-77
2022/07/07 12:00:32;;;;;;;0.10;0.10;;;;;;;;;;5050577;28;20029;-77
2022/07/07 12:03:00;;;;;;;0.10;0.10;;;;;;;;;;5051468;28;20439;-78
2022/07/07 12:05:37;;;;;;;0.10;0.10;;;;;;;;;;5051110;28;20452;-78
2022/07/07 12:08:05;;;;;;;0.10;0.10;;;;;;;;;;5049384;28;20024;-77
2022/07/07 12:10:34;;;;;;;0.10;0.10;;;;;;;;;;5050953;28;20385;-77
2022/07/07 12:13:04;;;;;;;0.10;0.10;;;;;;;;;;5054915;28;20064;-77
2022/07/07 12:15:34;;;;;;;0.10;0.10;;;;;;;;;;5053007;28;20037;-77
2022/07/07 12:18:01;;;;;;;0.10;0.10;;;;;;;;;;5054598;28;20392;-77
2022/07/07 12:20:27;;;;;;;0.10;0.10;;;;;;;;;;5054873;28;20025;-77
2022/07/07 12:22:54;;;;;;;0.10;0.10;;;;;;;;;;5054266;28;20094;-77
2022/07/07 12:25:21;;;;;;;0.20;0.20;;;;;;;;;;5054437;28;20032;-77
2022/07/07 12:27:57;;;;;;;0.10;0.10;;;;;;;;;;5054224;28;20036;-77
2022/07/07 12:30:24;;;;;;;0.10;0.10;;;;;;;;;;5054323;28;20572;-77
2022/07/07 12:32:51;;;;;;;0.10;0.10;;;;;;;;;;5054060;28;20111;-77
2022/07/07 12:35:27;;;;;;;0.10;0.10;;;;;;;;;;5052823;28;20040;-77
2022/07/07 12:37:53;;;;;;;0.10;0.10;;;;;;;;;;5053928;28;20032;-77
2022/07/07 12:40:19;;;;;;;0.10;0.10;;;;;;;;;;5052899;28;20404;-78
2022/07/07 12:42:45;;;;;;;0.10;0.10;;;;;;;;;;5052588;28;20481;-77
2022/07/07 12:45:15;;;;;;;0.10;0.10;;;;;;;;;;5054023;28;20489;-78
2022/07/07 12:47:48;;;;;;;0.10;0.10;;;;;;;;;;5053813;28;20021;-77
2022/07/07 12:50:14;;;;;;;0.10;0.10;;;;;;;;;;5053814;28;20032;-78
2022/07/07 12:52:40;;;;;;;0.10;0.10;;;;;;;;;;5053948;28;20025;-78
2022/07/07 12:55:13;;;;;;;0.10;0.10;;;;;;;;;;5053894;28;20036;-78
2022/07/07 12:57:39;;;;;;;0.10;0.10;;;;;;;;;;5052346;28;20366;-78
2022/07/07 13:00:06;;;;;;;0.10;0.10;;;;;;;;;;5053810;28;20030;-78
2022/07/07 13:02:32;;;;;;;0.10;0.10;;;;;;;;;;5053420;28;20037;-77
2022/07/07 13:04:58;;;;;;;0.10;0.10;;;;;;;;;;5053946;28;20533;-78
2022/07/07 13:07:24;;;;;;;0.10;0.10;;;;;;;;;;5053700;28;20108;-78
2022/07/07 13:09:51;;;;;;;0.10;0.10;;;;;;;;;;5053368;28;20106;-77
2022/07/07 13:12:17;;;;;;;0.10;0.10;;;;;;;;;;5053545;28;20035;-78
2022/07/07 13:14:47;;;;;;;0.10;0.10;;;;;;;;;;5053125;28;20033;-78
2022/07/07 13:17:13;;;;;;;0.10;0.10;;;;;;;;;;5053460;28;20446;-78
2022/07/07 13:19:39;;;;;;;0.10;0.10;;;;;;;;;;5053254;28;20059;-78
2022/07/07 13:22:05;;;;;;;0.10;0.10;;;;;;;;;;5052034;28;20438;-78
2022/07/07 13:24:31;;;;;;;0.10;0.10;;;;;;;;;;5053068;28;20083;-77
2022/07/07 13:26:57;;;;;;;0.10;0.10;;;;;;;;;;5052321;28;20033;-77
2022/07/07 13:29:23;;;;;;;0.10;0.10;;;;;;;;;;5053174;28;20465;-77
2022/07/07 13:31:49;;;;;;;0.10;0.10;;;;;;;;;;5051634;28;20456;-77
2022/07/07 13:34:16;;;;;;;0.10;0.10;;;;;;;;;;5052998;28;20165;-77
2022/07/07 13:36:42;;;;;;;0.10;0.10;;;;;;;;;;5051582;28;20500;-78
2022/07/07 13:39:08;;;;;;;0.10;0.10;;;;;;;;;;5051773;28;20492;-77
2022/07/07 13:41:34;;;;;;;0.08;0.08;;;;;;;;;;5051555;28;20056;-77
2022/07/07 13:44:00;;;;;;;0.10;0.10;;;;;;;;;;5053057;28;20056;-77
2022/07/07 13:46:26;;;;;;;0.10;0.10;;;;;;;;;;5051907;28;20025;-78
2022/07/07 13:48:52;;;;;;;0.10;0.10;;;;;;;;;;5052628;28;20033;-78
2022/07/07 13:51:18;;;;;;;0.00;0.00;;;;;;;;;;5052722;28;20033;-77
2022/07/07 13:53:44;;;;;;;0.10;0.10;;;;;;;;;;5052514;28;20358;-78
2022/07/07 13:56:10;;;;;;;0.10;0.10;;;;;;;;;;5052759;28;20055;-77
2022/07/07 13:58:36;;;;;;;0.10;0.10;;;;;;;;;;5051181;28;20025;-77
2022/07/07 14:01:02;;;;;;;0.10;0.10;;;;;;;;;;5051341;28;20025;-78
2022/07/07 14:03:28;;;;;;;0.10;0.10;;;;;;;;;;5052894;28;20032;-77
2022/07/07 14:05:54;;;;;;;0.10;0.10;;;;;;;;;;5052341;28;20025;-78
2022/07/07 14:08:20;;;;;;;0.10;0.10;;;;;;;;;;5051265;28;20031;-78
2022/07/07 14:10:46;;;;;;;0.10;0.10;;;;;;;;;;5050936;28;20025;-77
2022/07/07 14:13:12;;;;;;;0.10;0.10;;;;;;;;;;5051184;28;20028;-77
2022/07/07 14:15:40;;;;;;;0.10;0.10;;;;;;;;;;5050683;28;20397;-78
2022/07/07 14:18:06;;;;;;;0.10;0.10;;;;;;;;;;5052338;28;20433;-78
2022/07/07 14:20:32;;;;;;;0.10;0.10;;;;;;;;;;5051978;28;20111;-77
2022/07/07 14:22:58;;;;;;;0.10;0.10;;;;;;;;;;5052580;28;20029;-78
2022/07/07 14:25:24;;;;;;;0.10;0.10;;;;;;;;;;5052177;28;20029;-78
2022/07/07 14:27:50;;;;;;;0.10;0.10;;;;;;;;;;5051915;28;20021;-78
2022/07/07 14:30:17;;;;;;;0.10;0.10;;;;;;;;;;5051949;28;20033;-78
2022/07/07 14:32:43;;;;;;;0.10;0.10;;;;;;;;;;5051756;28;20381;-78
2022/07/07 14:35:09;;;;;;;0.10;0.10;;;;;;;;;;5051452;28;20044;-78
2022/07/07 14:37:35;;;;;;;0.10;0.10;;;;;;;;;;5051692;28;20020;-78
2022/07/07 14:40:01;;;;;;;0.10;0.10;;;;;;;;;;5051874;28;20099;-77
2022/07/07 14:42:28;;;;;;;0.10;0.10;;;;;;;;;;5050782;28;20025;-78
2022/07/07 14:44:54;;;;;;;0.10;0.10;;;;;;;;;;5051541;28;20040;-78
2022/07/07 14:47:20;;;;;;;0.10;0.10;;;;;;;;;;5051800;28;20460;-78